Верхний Парень

СКИДКИ НА СМАРТФОНЫ!

Карта отелей и гостиниц, располагающихся рядом с аэропортом Верхний Парень :

Верхний Парень Магаданская область 62° 39' 11.16" N, 162° 24' 36.6588" E
Верхний Парень Магаданская область 62° 39' 11.16" N, 162° 24' 36.6588" E
Код аэродрома ИКАО
UHGP
Код аэродрома RU
УХГП
Координаты
N62.65310° E162.41018°
Превышение над уровнем моря
50
Основная полоса
14/32
Курс магнитный
139,8/319,8
Длина основной ВПП
380
Ширина основной ВПП
40
Покрытие основной ВПП
Нетвёрдое (грунт)
Освещение ВПП
Нет
Тип: 
Аэродром
Класс аэродрома: 
Принадлежность: 
ГА
Статус: 
Недействующий
Сайт: 
E-mail аэродрома: 
Страна: 
Россия
Регион: 
Магаданская область
Город: 
Дополнительная информация: 

Скидки на навигаторы!

Найти трансфер

С помощью этой формы Вы можете найти трансфер из аэропорта Верхний Парень в город, аэропорт или вокзал:

Погода в аэропортах:

Авиационная погода в Липецке

Регион: 
Погода METAR: 
UUOL 190400Z 06009MPS 9999 -RA BKN009 16/16 Q1016 R33/290150 NOSIG
Время наблюдения
2022-08-19T04:00:00Z
Температура C
16.0
Точка росы
16.0
Направление ветра
60
Скорость ветра (узлы)
17
Метео видимость
6.21
Облачность
BKN
Нижняя граница облачности (футы)
900
Явления погоды
-RA
Условия полета
IFR
Аэропорт подробнее: 
BKN – значительная (рассеянная, разорванная) облачность;
-RA - слабый дождь;

Авиационная погода в Сургуте

Регион: 
Погода METAR: 
USRR 190300Z 34004MPS 9999 -SHRA SCT010 BKN017CB 10/09 Q1021 R25/290060 NOSIG RMK QFE760
Время наблюдения
2022-08-19T03:00:00Z
Температура C
10.0
Точка росы
9.0
Направление ветра
340
Скорость ветра (узлы)
8
Метео видимость
6.21
Облачность
SCT
BKN
Нижняя граница облачности (футы)
1000
1700
Явления погоды
-SHRA
Условия полета
MVFR
Аэропорт подробнее: 
SCT – разбросанная отдельная облачность; BKN – значительная (рассеянная, разорванная) облачность;
-SHRA - слабый ливневой дождь;

Авиационная погода в аэропорту Сокол

Регион: 
Погода METAR: 
UHMM 190400Z 10009G14MPS 9999 -SHRA OVC025CB 14/11 Q1004 R10/70D NOSIG RMK MT OBSC QFE738 R28/12008MPS
Время наблюдения
2022-08-19T04:00:00Z
Температура C
14.0
Точка росы
11.0
Направление ветра
100
Скорость ветра (узлы)
17
Метео видимость
6.21
Облачность
OVC
Нижняя граница облачности (футы)
2500
Явления погоды
-SHRA
Условия полета
MVFR
Аэропорт подробнее: 
OVC – сплошная облачность;
-SHRA - слабый ливневой дождь;

Авиационная погода в Сочи

Регион: 
Погода METAR: 
URSS 190400Z 03002MPS 350V060 9999 VCTS -SHRA SCT016 OVC050CB 22/20 Q1008 R06/290060 R02/290060 NOSIG RMK R02/04003MPS MT OBSC QFE755
Время наблюдения
2022-08-19T04:00:00Z
Температура C
22.0
Точка росы
20.0
Направление ветра
30
Скорость ветра (узлы)
4
Метео видимость
6.21
Облачность
SCT
OVC
Нижняя граница облачности (футы)
1600
5000
Явления погоды
VCTS -SHRA
Условия полета
VFR
Аэропорт подробнее: 
SCT – разбросанная отдельная облачность; OVC – сплошная облачность;
-SHRA - слабый ливневой дождь;